createdAt,value
2019-06-26T00:00:49.550Z,51.30
2019-06-26T00:04:54.053Z,51.30
2019-06-26T00:08:58.508Z,51.30
2019-06-26T00:13:03.097Z,51.90
2019-06-26T00:17:07.601Z,51.40
2019-06-26T00:21:12.091Z,51.30
2019-06-26T00:25:16.692Z,51.20
2019-06-26T00:29:21.115Z,51.40
2019-06-26T00:33:25.598Z,51.50
2019-06-26T00:37:30.098Z,51.40
2019-06-26T00:41:34.581Z,51.40
2019-06-26T00:45:39.064Z,51.80
2019-06-26T00:49:43.536Z,51.80
2019-06-26T00:53:48.108Z,52.10
2019-06-26T00:57:52.607Z,52.00
2019-06-26T01:01:57.107Z,52.30
2019-06-26T01:06:01.617Z,52.10
2019-06-26T01:10:06.778Z,52.20
2019-06-26T01:14:11.218Z,52.30
2019-06-26T01:18:15.747Z,52.10
2019-06-26T01:22:20.239Z,52.30
2019-06-26T01:26:24.739Z,52.20
2019-06-26T01:30:29.253Z,52.10
2019-06-26T01:34:33.703Z,52.50
2019-06-26T01:38:38.184Z,51.50
2019-06-26T01:42:42.683Z,52.50
2019-06-26T01:46:47.155Z,52.40
2019-06-26T01:50:51.664Z,52.50
2019-06-26T01:54:56.117Z,52.70
2019-06-26T01:59:00.608Z,52.70
2019-06-26T02:03:05.199Z,52.80
2019-06-26T02:07:09.686Z,52.50
2019-06-26T02:11:14.191Z,52.70
2019-06-26T02:15:18.756Z,52.80
2019-06-26T02:19:23.281Z,52.60
2019-06-26T02:23:27.786Z,52.80
2019-06-26T02:27:32.311Z,53.00
2019-06-26T02:31:36.790Z,52.80
2019-06-26T02:35:41.292Z,52.60
2019-06-26T02:39:45.772Z,53.30
2019-06-26T02:43:50.765Z,53.20
2019-06-26T02:47:55.249Z,53.00
2019-06-26T02:51:59.736Z,53.10
2019-06-26T02:56:04.199Z,53.20
2019-06-26T03:00:09.126Z,53.20
2019-06-26T03:04:13.611Z,53.00
2019-06-26T03:08:18.118Z,53.00
2019-06-26T03:12:22.609Z,53.10
2019-06-26T03:16:27.138Z,53.60
2019-06-26T03:20:34.671Z,53.10
2019-06-26T03:24:39.207Z,53.20
2019-06-26T03:28:43.691Z,53.00
2019-06-26T03:32:48.189Z,53.00
2019-06-26T03:36:52.667Z,53.00
2019-06-26T03:40:57.124Z,53.10
2019-06-26T03:45:01.767Z,53.10
2019-06-26T03:49:06.431Z,53.10
2019-06-26T03:53:10.944Z,53.10
2019-06-26T03:57:15.412Z,54.10
2019-06-26T04:01:19.883Z,53.50
2019-06-26T04:05:24.414Z,53.30
2019-06-26T04:09:28.868Z,53.60
2019-06-26T04:13:33.342Z,53.60
2019-06-26T04:17:37.850Z,54.40
2019-06-26T04:21:42.320Z,53.60
2019-06-26T04:25:46.793Z,53.60
2019-06-26T04:29:51.304Z,53.60
2019-06-26T04:33:55.848Z,54.00
2019-06-26T04:38:00.327Z,54.40
2019-06-26T04:42:04.795Z,53.90
2019-06-26T04:46:09.286Z,54.20
2019-06-26T04:50:13.994Z,54.20
2019-06-26T04:54:18.530Z,54.90
2019-06-26T04:58:23.029Z,54.60
2019-06-26T05:02:27.553Z,54.70
2019-06-26T05:06:32.020Z,55.00
2019-06-26T05:10:36.514Z,54.80
2019-06-26T05:14:41.009Z,55.10
2019-06-26T05:18:45.534Z,55.20
2019-06-26T05:22:50.041Z,55.70
2019-06-26T05:26:54.496Z,56.00
2019-06-26T05:30:58.981Z,56.70
2019-06-26T05:35:03.502Z,56.20
2019-06-26T05:39:09.682Z,56.30
2019-06-26T05:43:14.310Z,57.50
2019-06-26T05:47:21.972Z,57.60
2019-06-26T05:51:24.938Z,58.70
2019-06-26T05:55:29.415Z,59.20
2019-06-26T05:59:33.945Z,59.50
2019-06-26T06:03:38.413Z,58.30
2019-06-26T06:07:42.878Z,58.20
2019-06-26T06:11:47.391Z,60.00
2019-06-26T06:15:59.631Z,59.60
2019-06-26T06:20:04.442Z,59.70
2019-06-26T06:24:08.961Z,58.50
2019-06-26T06:28:13.474Z,57.20
2019-06-26T06:32:17.950Z,55.90
2019-06-26T06:36:22.439Z,55.20
2019-06-26T06:40:26.944Z,53.60
2019-06-26T06:44:31.436Z,53.80
2019-06-26T06:48:35.948Z,51.60
2019-06-26T06:52:40.398Z,51.30
2019-06-26T06:56:44.906Z,50.50
2019-06-26T07:00:49.408Z,49.60
2019-06-26T07:04:53.921Z,49.40
2019-06-26T07:08:58.427Z,49.40
2019-06-26T07:13:02.916Z,49.90
2019-06-26T07:17:20.093Z,50.00
2019-06-26T07:21:13.610Z,49.90
2019-06-26T07:25:18.124Z,49.30
2019-06-26T07:29:22.643Z,49.30
2019-06-26T07:33:27.110Z,49.60
2019-06-26T07:37:31.617Z,47.80
2019-06-26T07:41:36.111Z,48.00
2019-06-26T07:45:40.635Z,47.80
2019-06-26T07:49:45.197Z,47.60
2019-06-26T07:53:49.660Z,47.70
2019-06-26T07:57:54.164Z,47.40
2019-06-26T08:01:58.652Z,46.90
2019-06-26T08:06:03.300Z,46.50
2019-06-26T08:10:08.207Z,46.60
2019-06-26T08:14:12.762Z,46.50
2019-06-26T08:18:17.423Z,45.80
2019-06-26T08:22:22.731Z,46.70
2019-06-26T08:26:27.265Z,46.50
2019-06-26T08:30:31.793Z,46.00
2019-06-26T08:34:36.297Z,45.80
2019-06-26T08:38:40.772Z,47.10
2019-06-26T08:42:45.295Z,46.90
2019-06-26T08:46:49.807Z,46.60
2019-06-26T08:50:54.300Z,46.40
2019-06-26T08:54:58.800Z,45.60
2019-06-26T08:59:03.290Z,46.40
2019-06-26T09:03:07.786Z,46.20
2019-06-26T09:07:12.276Z,45.40
2019-06-26T09:11:16.786Z,45.70
2019-06-26T09:15:21.290Z,45.80
2019-06-26T09:19:25.806Z,46.20
2019-06-26T09:23:31.294Z,45.80
2019-06-26T09:27:35.931Z,46.70
2019-06-26T09:31:40.419Z,46.60
2019-06-26T09:35:45.011Z,46.70
2019-06-26T09:39:49.479Z,46.20
2019-06-26T09:43:53.986Z,47.60
2019-06-26T09:47:58.477Z,47.30
2019-06-26T09:52:03.015Z,48.40
2019-06-26T09:56:07.503Z,49.00
2019-06-26T10:00:12.533Z,49.20
2019-06-26T10:04:17.040Z,48.70
2019-06-26T10:08:21.607Z,49.40
2019-06-26T10:12:26.155Z,49.70
2019-06-26T10:16:30.702Z,50.10
2019-06-26T10:20:35.178Z,50.10
2019-06-26T10:24:39.644Z,50.40
2019-06-26T10:28:44.151Z,50.50
2019-06-26T10:32:51.009Z,50.90
2019-06-26T10:36:55.486Z,50.80
2019-06-26T10:41:00.006Z,50.70
2019-06-26T10:45:05.170Z,51.00
2019-06-26T10:49:25.598Z,51.10
2019-06-26T10:53:15.958Z,51.00
2019-06-26T10:57:20.459Z,51.10
2019-06-26T11:01:24.993Z,51.70
2019-06-26T11:05:29.475Z,51.10
2019-06-26T11:09:33.988Z,51.70
2019-06-26T11:13:38.485Z,51.00
2019-06-26T11:17:43.002Z,51.70
2019-06-26T11:21:47.475Z,51.80
2019-06-26T11:25:51.975Z,52.10
2019-06-26T11:29:56.498Z,51.70
2019-06-26T11:34:00.991Z,51.70
2019-06-26T11:38:05.488Z,51.60
2019-06-26T11:42:10.079Z,51.50
2019-06-26T11:46:14.541Z,51.10
2019-06-26T11:50:20.851Z,51.70
2019-06-26T11:54:25.360Z,52.80
2019-06-26T11:58:29.838Z,52.40
2019-06-26T12:02:34.592Z,52.50
2019-06-26T12:06:39.456Z,53.00
2019-06-26T12:10:43.927Z,52.40
2019-06-26T12:14:48.450Z,52.10
2019-06-26T12:18:52.955Z,51.70
2019-06-26T12:22:57.512Z,51.60
2019-06-26T12:27:02.004Z,50.60
2019-06-26T12:31:06.459Z,50.60
2019-06-26T12:35:11.937Z,50.70
2019-06-26T12:39:16.458Z,50.80
2019-06-26T12:43:20.952Z,50.30
2019-06-26T12:47:25.452Z,50.40
2019-06-26T12:51:29.916Z,48.90
2019-06-26T12:55:34.407Z,49.70
2019-06-26T12:59:52.711Z,50.40
2019-06-26T13:03:45.116Z,50.20
2019-06-26T13:07:49.602Z,50.20
2019-06-26T13:11:54.187Z,50.20
2019-06-26T13:15:58.870Z,49.70
2019-06-26T13:20:03.430Z,50.10
2019-06-26T13:24:07.984Z,49.90
2019-06-26T13:28:12.464Z,48.90
2019-06-26T13:32:29.043Z,49.70
2019-06-26T13:36:33.786Z,48.40
2019-06-26T13:40:40.940Z,47.80
2019-06-26T13:44:44.976Z,47.50
2019-06-26T13:48:49.556Z,48.10
2019-06-26T13:52:54.164Z,48.30
2019-06-26T13:56:58.659Z,48.20
2019-06-26T14:01:03.180Z,47.80
2019-06-26T14:05:07.718Z,48.20
2019-06-26T14:09:12.214Z,48.90
2019-06-26T14:13:16.727Z,48.60
2019-06-26T14:17:21.219Z,48.40
2019-06-26T14:21:26.453Z,48.50
2019-06-26T14:25:31.029Z,48.40
2019-06-26T14:29:35.515Z,48.30
2019-06-26T14:33:40.004Z,48.90
2019-06-26T14:37:44.482Z,49.00
2019-06-26T14:41:48.967Z,49.00
2019-06-26T14:45:53.463Z,49.00
2019-06-26T14:49:57.983Z,48.40
2019-06-26T14:54:02.499Z,48.40
2019-06-26T14:58:06.998Z,49.00
2019-06-26T15:02:11.487Z,48.30
2019-06-26T15:06:17.259Z,48.30
2019-06-26T15:10:22.040Z,48.80
2019-06-26T15:14:26.814Z,49.30
2019-06-26T15:18:31.547Z,49.30
2019-06-26T15:22:36.015Z,49.40
2019-06-26T15:26:40.530Z,49.50
2019-06-26T15:30:45.153Z,49.50
2019-06-26T15:34:49.665Z,49.70
2019-06-26T15:38:54.165Z,50.00
2019-06-26T15:42:58.642Z,49.70
2019-06-26T15:47:03.135Z,49.50
2019-06-26T15:51:07.624Z,49.50
2019-06-26T15:55:13.215Z,49.90
2019-06-26T15:59:17.760Z,50.40
2019-06-26T16:03:22.221Z,50.90
2019-06-26T16:07:26.703Z,51.00
2019-06-26T16:11:31.196Z,51.50
2019-06-26T16:15:36.129Z,51.60
2019-06-26T16:19:40.643Z,52.10
2019-06-26T16:23:45.106Z,51.70
2019-06-26T16:28:04.239Z,51.60
2019-06-26T16:31:55.727Z,52.30
2019-06-26T16:36:00.229Z,51.50
2019-06-26T16:40:04.922Z,51.70
2019-06-26T16:44:09.373Z,51.70
2019-06-26T16:48:13.863Z,51.40
2019-06-26T16:52:18.356Z,51.30
2019-06-26T16:56:23.235Z,50.60
2019-06-26T17:00:27.822Z,50.60
2019-06-26T17:04:32.327Z,50.10
2019-06-26T17:08:36.791Z,50.10
2019-06-26T17:12:41.283Z,50.70
2019-06-26T17:16:45.798Z,50.90
2019-06-26T17:20:50.308Z,51.30
2019-06-26T17:24:54.800Z,51.10
2019-06-26T17:28:59.256Z,50.70
2019-06-26T17:33:03.751Z,51.00
2019-06-26T17:37:08.227Z,51.10
2019-06-26T17:41:12.708Z,51.00
2019-06-26T17:45:17.298Z,50.90
2019-06-26T17:49:21.744Z,50.80
2019-06-26T17:53:26.232Z,50.90
2019-06-26T17:57:30.723Z,51.00
2019-06-26T18:01:35.215Z,51.20
2019-06-26T18:05:39.715Z,51.30
2019-06-26T18:09:44.191Z,51.50
2019-06-26T18:13:48.861Z,51.50
2019-06-26T18:17:53.376Z,51.80
2019-06-26T18:21:57.868Z,52.10
2019-06-26T18:26:12.331Z,52.40
2019-06-26T18:30:08.843Z,52.80
2019-06-26T18:34:13.402Z,52.80
2019-06-26T18:38:17.880Z,53.10
2019-06-26T18:42:22.372Z,53.80
2019-06-26T18:46:26.890Z,53.50
2019-06-26T18:50:31.476Z,54.20
2019-06-26T18:54:35.940Z,54.00
2019-06-26T18:58:40.452Z,54.40
2019-06-26T19:02:45.704Z,54.70
2019-06-26T19:06:50.216Z,55.60
2019-06-26T19:10:54.695Z,54.80
2019-06-26T19:14:59.174Z,54.50
2019-06-26T19:19:03.719Z,55.40
2019-06-26T19:23:08.220Z,57.00
2019-06-26T19:27:12.720Z,55.00
2019-06-26T19:31:18.930Z,56.10
2019-06-26T19:35:23.377Z,56.30
2019-06-26T19:39:27.855Z,56.20
2019-06-26T19:43:32.333Z,56.70
2019-06-26T19:47:36.807Z,56.10
2019-06-26T19:51:41.282Z,57.00
2019-06-26T19:55:45.755Z,57.80
2019-06-26T19:59:50.252Z,56.80
2019-06-26T20:03:54.735Z,56.60
2019-06-26T20:07:59.249Z,57.60
2019-06-26T20:12:03.745Z,57.30
2019-06-26T20:16:08.193Z,58.30
2019-06-26T20:20:13.112Z,59.10
2019-06-26T20:24:17.594Z,58.60
2019-06-26T20:28:22.095Z,59.10
2019-06-26T20:32:26.578Z,58.30
2019-06-26T20:36:31.041Z,60.00
2019-06-26T20:40:35.569Z,59.00
2019-06-26T20:44:40.896Z,59.80
2019-06-26T20:48:45.395Z,58.30
2019-06-26T20:52:49.884Z,58.60
2019-06-26T20:56:54.373Z,58.30
2019-06-26T21:00:58.822Z,59.70
2019-06-26T21:05:03.333Z,59.20
2019-06-26T21:09:07.860Z,62.20
2019-06-26T21:13:12.480Z,60.10
2019-06-26T21:17:17.052Z,60.90
2019-06-26T21:21:21.507Z,61.30
2019-06-26T21:25:25.994Z,61.00
2019-06-26T21:29:30.484Z,60.40
2019-06-26T21:33:34.971Z,59.40
2019-06-26T21:37:39.446Z,59.60
2019-06-26T21:41:43.903Z,59.70
2019-06-26T21:45:48.437Z,60.30
2019-06-26T21:49:52.966Z,59.70
2019-06-26T21:53:57.439Z,59.90
2019-06-26T21:58:01.924Z,61.20
2019-06-26T22:02:06.486Z,61.30
2019-06-26T22:06:10.983Z,60.90
2019-06-26T22:10:15.572Z,61.10
2019-06-26T22:14:20.066Z,60.90
2019-06-26T22:18:24.583Z,61.00
2019-06-26T22:22:29.055Z,60.60
2019-06-26T22:26:33.560Z,60.50
2019-06-26T22:30:38.047Z,61.10
2019-06-26T22:34:42.530Z,61.20
2019-06-26T22:38:47.010Z,61.10
2019-06-26T22:42:51.448Z,62.60
2019-06-26T22:46:55.908Z,61.10
2019-06-26T22:51:00.408Z,62.00
2019-06-26T22:55:05.056Z,62.10
2019-06-26T22:59:09.535Z,62.20
2019-06-26T23:03:14.023Z,61.80
2019-06-26T23:07:18.481Z,62.30
2019-06-26T23:11:23.940Z,62.70
2019-06-26T23:15:28.476Z,63.20
2019-06-26T23:19:33.016Z,63.40
2019-06-26T23:23:37.587Z,64.10
2019-06-26T23:27:42.039Z,63.70
2019-06-26T23:31:46.519Z,63.40
2019-06-26T23:35:51.007Z,64.20
2019-06-26T23:39:55.493Z,63.30
2019-06-26T23:44:00.059Z,63.20
2019-06-26T23:48:04.542Z,64.00
2019-06-26T23:52:09.031Z,64.20
2019-06-26T23:56:13.511Z,63.70
